createdAt,value
2022-08-30T00:00:04.521Z,0.00
2022-08-30T00:01:04.521Z,0.00
2022-08-30T00:02:04.511Z,0.00
2022-08-30T00:03:04.737Z,0.00
2022-08-30T00:04:04.573Z,0.00
2022-08-30T00:05:04.486Z,0.00
2022-08-30T00:06:04.474Z,0.00
2022-08-30T00:07:04.472Z,0.00
2022-08-30T00:08:04.477Z,0.00
2022-08-30T00:09:04.455Z,0.00
2022-08-30T00:10:04.446Z,0.00
2022-08-30T00:11:04.433Z,0.00
2022-08-30T00:12:04.455Z,0.00
2022-08-30T00:13:04.423Z,0.00
2022-08-30T00:14:04.418Z,0.00
2022-08-30T00:15:04.443Z,0.00
2022-08-30T00:16:04.522Z,0.00
2022-08-30T00:17:04.432Z,0.00
2022-08-30T00:18:04.371Z,0.00
2022-08-30T00:19:04.390Z,0.00
2022-08-30T00:20:04.385Z,0.00
2022-08-30T00:21:04.346Z,0.00
2022-08-30T00:22:04.335Z,0.00
2022-08-30T00:23:04.356Z,0.00
2022-08-30T00:24:05.056Z,0.00
2022-08-30T00:25:04.317Z,0.00
2022-08-30T00:26:04.333Z,0.00
2022-08-30T00:27:04.299Z,0.00
2022-08-30T00:28:04.289Z,0.00
2022-08-30T00:29:04.282Z,0.00
2022-08-30T00:30:04.277Z,0.00
2022-08-30T00:31:57.369Z,0.00
2022-08-30T00:32:57.373Z,0.00
2022-08-30T00:33:57.347Z,0.00
2022-08-30T00:34:57.353Z,0.00
2022-08-30T00:35:57.331Z,0.00
2022-08-30T00:36:57.327Z,0.00
2022-08-30T00:37:57.322Z,0.00
2022-08-30T00:38:57.312Z,0.00
2022-08-30T00:39:57.344Z,0.00
2022-08-30T00:40:57.293Z,0.00
2022-08-30T00:41:58.376Z,0.00
2022-08-30T00:42:59.158Z,0.00
2022-08-30T00:43:59.370Z,0.00
2022-08-30T00:44:58.353Z,0.00
2022-08-30T00:45:58.401Z,0.00
2022-08-30T00:46:58.388Z,0.00
2022-08-30T00:47:58.325Z,0.00
2022-08-30T00:48:58.336Z,0.00
2022-08-30T00:49:58.316Z,0.00
2022-08-30T00:50:58.308Z,0.00
2022-08-30T00:51:58.305Z,0.00
2022-08-30T00:52:58.289Z,0.00
2022-08-30T00:53:58.291Z,0.00
2022-08-30T00:54:58.276Z,0.00
2022-08-30T00:55:58.275Z,0.00
2022-08-30T00:56:58.261Z,0.00
2022-08-30T00:57:58.255Z,0.00
2022-08-30T00:58:58.254Z,0.00
2022-08-30T00:59:58.239Z,0.00
2022-08-30T01:00:58.248Z,0.00
2022-08-30T01:01:58.253Z,0.00
2022-08-30T01:02:58.270Z,0.00
2022-08-30T01:03:58.211Z,0.00
2022-08-30T01:04:58.194Z,0.00
2022-08-30T01:05:58.187Z,0.00
2022-08-30T01:06:58.177Z,0.00
2022-08-30T01:07:58.169Z,0.00
2022-08-30T01:08:58.727Z,0.00
2022-08-30T01:09:58.173Z,0.00
2022-08-30T01:10:58.156Z,0.00
2022-08-30T01:11:58.150Z,0.00
2022-08-30T01:12:58.137Z,0.00
2022-08-30T01:13:58.135Z,0.00
2022-08-30T01:14:58.130Z,0.00
2022-08-30T01:15:58.134Z,0.00
2022-08-30T01:16:58.108Z,0.00
2022-08-30T01:17:58.092Z,0.00
2022-08-30T01:18:58.092Z,0.00
2022-08-30T01:19:58.738Z,0.00
2022-08-30T01:20:58.072Z,0.00
2022-08-30T01:21:58.088Z,0.00
2022-08-30T01:22:58.057Z,0.00
2022-08-30T01:23:58.051Z,0.00
2022-08-30T01:24:58.034Z,0.00
2022-08-30T01:25:58.036Z,0.00
2022-08-30T01:26:58.034Z,0.00
2022-08-30T01:27:58.031Z,0.00
2022-08-30T01:28:58.010Z,0.00
2022-08-30T01:29:58.005Z,0.00
2022-08-30T01:30:58.060Z,0.00
2022-08-30T01:31:57.983Z,0.00
2022-08-30T01:32:57.986Z,0.00
2022-08-30T01:33:57.966Z,0.00
2022-08-30T01:34:57.963Z,0.00
2022-08-30T01:35:58.734Z,0.00
2022-08-30T01:36:57.953Z,0.00
2022-08-30T01:37:57.959Z,0.00
2022-08-30T01:38:57.931Z,0.00
2022-08-30T01:39:57.938Z,0.00
2022-08-30T01:40:57.938Z,0.00
2022-08-30T01:41:57.908Z,0.00
2022-08-30T01:42:57.906Z,0.00
2022-08-30T01:43:57.900Z,0.00
2022-08-30T01:44:57.888Z,0.00
2022-08-30T01:45:57.950Z,0.00
2022-08-30T01:46:57.876Z,0.00
2022-08-30T01:47:57.880Z,0.00
2022-08-30T01:48:57.860Z,0.00
2022-08-30T01:49:57.840Z,0.00
2022-08-30T01:50:57.829Z,0.00
2022-08-30T01:52:00.976Z,0.00
2022-08-30T01:52:57.815Z,0.00
2022-08-30T01:53:57.820Z,0.00
2022-08-30T01:54:57.810Z,0.00
2022-08-30T01:55:57.795Z,0.00
2022-08-30T01:56:57.786Z,0.00
2022-08-30T01:57:57.874Z,0.00
2022-08-30T01:59:02.400Z,0.00
2022-08-30T01:59:59.770Z,0.00
2022-08-30T02:00:57.785Z,0.00
2022-08-30T02:01:57.745Z,0.00
2022-08-30T02:02:57.737Z,0.00
2022-08-30T02:03:57.846Z,0.00
2022-08-30T02:04:58.399Z,0.00
2022-08-30T02:05:57.724Z,0.00
2022-08-30T02:06:57.706Z,0.00
2022-08-30T02:07:57.699Z,0.00
2022-08-30T02:08:57.699Z,0.00
2022-08-30T02:09:58.323Z,0.00
2022-08-30T02:10:58.337Z,0.00
2022-08-30T02:11:57.678Z,0.00
2022-08-30T02:12:57.665Z,0.00
2022-08-30T02:13:57.667Z,0.00
2022-08-30T02:14:57.652Z,0.00
2022-08-30T02:15:57.649Z,0.00
2022-08-30T02:16:57.676Z,0.00
2022-08-30T02:17:57.621Z,0.00
2022-08-30T02:18:57.670Z,0.00
2022-08-30T02:19:57.604Z,0.00
2022-08-30T02:20:57.625Z,0.00
2022-08-30T02:21:57.588Z,0.00
2022-08-30T02:23:01.210Z,0.00
2022-08-30T02:23:58.592Z,0.00
2022-08-30T02:24:57.563Z,0.00
2022-08-30T02:25:57.587Z,0.00
2022-08-30T02:26:57.542Z,0.00
2022-08-30T02:27:57.536Z,0.00
2022-08-30T02:28:59.145Z,0.00
2022-08-30T02:29:57.533Z,0.00
2022-08-30T02:30:57.569Z,0.00
2022-08-30T02:31:57.512Z,0.00
2022-08-30T02:32:57.568Z,0.00
2022-08-30T02:33:57.486Z,0.00
2022-08-30T02:34:57.525Z,0.00
2022-08-30T02:35:57.475Z,0.00
2022-08-30T02:36:57.471Z,0.00
2022-08-30T02:37:57.462Z,0.00
2022-08-30T02:38:57.458Z,0.00
2022-08-30T02:39:57.494Z,0.00
2022-08-30T02:40:57.438Z,0.00
2022-08-30T02:41:57.452Z,0.00
2022-08-30T02:42:57.511Z,0.00
2022-08-30T02:43:57.407Z,0.00
2022-08-30T02:44:57.398Z,0.00
2022-08-30T02:45:57.451Z,0.00
2022-08-30T02:46:57.417Z,0.00
2022-08-30T02:47:57.441Z,0.00
2022-08-30T02:48:58.639Z,0.00
2022-08-30T02:49:57.363Z,0.00
2022-08-30T02:50:57.392Z,0.00
2022-08-30T02:51:57.358Z,0.00
2022-08-30T02:52:57.346Z,0.00
2022-08-30T02:53:57.338Z,0.00
2022-08-30T02:54:57.332Z,0.00
2022-08-30T02:55:57.344Z,0.00
2022-08-30T02:56:57.312Z,0.00
2022-08-30T02:57:57.300Z,0.00
2022-08-30T02:58:57.304Z,0.00
2022-08-30T02:59:57.284Z,0.00
2022-08-30T03:00:57.312Z,0.00
2022-08-30T03:01:57.274Z,0.00
2022-08-30T03:02:57.276Z,0.00
2022-08-30T03:03:57.305Z,0.00
2022-08-30T03:04:57.298Z,0.00
2022-08-30T03:05:57.266Z,0.00
2022-08-30T03:06:57.253Z,0.00
2022-08-30T03:07:57.247Z,0.00
2022-08-30T03:08:57.268Z,0.00
2022-08-30T03:09:57.251Z,0.00
2022-08-30T03:10:57.230Z,0.00
2022-08-30T03:11:57.191Z,0.00
2022-08-30T03:12:57.181Z,0.00
2022-08-30T03:13:57.176Z,0.00
2022-08-30T03:14:57.168Z,0.00
2022-08-30T03:15:57.153Z,0.00
2022-08-30T03:16:57.210Z,0.00
2022-08-30T03:17:57.149Z,0.00
2022-08-30T03:18:57.141Z,0.00
2022-08-30T03:19:57.133Z,0.00
2022-08-30T03:20:57.123Z,0.00
2022-08-30T03:21:57.112Z,0.00
2022-08-30T03:22:57.116Z,0.00
2022-08-30T03:23:57.098Z,0.00
2022-08-30T03:24:57.090Z,0.00
2022-08-30T03:25:57.078Z,0.00
2022-08-30T03:26:57.112Z,0.00
2022-08-30T03:27:57.060Z,0.00
2022-08-30T03:28:57.059Z,0.00
2022-08-30T03:29:57.055Z,0.00
2022-08-30T03:30:57.049Z,0.00
2022-08-30T03:31:57.094Z,0.00
2022-08-30T03:32:57.050Z,0.00
2022-08-30T03:33:57.019Z,0.00
2022-08-30T03:34:57.008Z,0.00
2022-08-30T03:35:57.001Z,0.00
2022-08-30T03:36:57.027Z,0.00
2022-08-30T03:37:56.990Z,0.00
2022-08-30T03:38:57.769Z,0.00
2022-08-30T03:39:57.070Z,0.00
2022-08-30T03:40:56.965Z,0.00
2022-08-30T03:41:56.951Z,0.00
2022-08-30T03:42:56.941Z,0.00
2022-08-30T03:44:00.171Z,0.00
2022-08-30T03:44:56.929Z,0.00
2022-08-30T03:45:57.039Z,0.00
2022-08-30T03:46:56.905Z,0.00
2022-08-30T03:47:57.896Z,0.00
2022-08-30T03:48:56.888Z,0.00
2022-08-30T03:49:56.890Z,0.00
2022-08-30T03:50:56.882Z,0.00
2022-08-30T03:51:56.878Z,0.00
2022-08-30T03:52:56.864Z,0.00
2022-08-30T03:53:56.855Z,0.00
2022-08-30T03:54:56.840Z,0.00
2022-08-30T03:55:57.244Z,0.00
2022-08-30T03:56:56.828Z,0.00
2022-08-30T03:57:56.822Z,0.00
2022-08-30T03:58:56.821Z,0.00
2022-08-30T03:59:56.811Z,0.00
2022-08-30T04:00:56.875Z,0.00
2022-08-30T04:01:56.875Z,0.00
2022-08-30T04:02:56.783Z,0.00
2022-08-30T04:03:56.804Z,0.00
2022-08-30T04:04:56.793Z,0.00
2022-08-30T04:05:56.771Z,4.00
2022-08-30T04:06:56.780Z,4.00
2022-08-30T04:07:56.742Z,0.00
2022-08-30T04:08:56.744Z,0.00
2022-08-30T04:09:56.733Z,4.00
2022-08-30T04:10:56.725Z,4.00
2022-08-30T04:11:56.728Z,4.00
2022-08-30T04:12:56.705Z,4.00
2022-08-30T04:13:56.734Z,4.00
2022-08-30T04:14:56.691Z,8.00
2022-08-30T04:15:56.778Z,4.00
2022-08-30T04:16:56.705Z,4.00
2022-08-30T04:17:56.665Z,8.00
2022-08-30T04:18:56.673Z,8.00
2022-08-30T04:19:56.661Z,8.00
2022-08-30T04:20:56.642Z,12.00
2022-08-30T04:21:56.648Z,12.00
2022-08-30T04:22:56.624Z,16.00
2022-08-30T04:23:56.617Z,16.00
2022-08-30T04:24:56.606Z,16.00
2022-08-30T04:25:56.608Z,20.00
2022-08-30T04:26:56.641Z,24.00
2022-08-30T04:27:56.584Z,24.00
2022-08-30T04:28:56.573Z,28.00
2022-08-30T04:29:56.579Z,32.00
2022-08-30T04:30:56.579Z,36.00
2022-08-30T04:31:56.638Z,36.00
2022-08-30T04:32:58.715Z,40.00
2022-08-30T04:33:57.539Z,44.00
2022-08-30T04:34:56.534Z,48.00
2022-08-30T04:35:56.526Z,56.00
2022-08-30T04:36:56.515Z,60.00
2022-08-30T04:37:56.503Z,68.00
2022-08-30T04:38:56.501Z,76.00
2022-08-30T04:39:56.600Z,76.00
2022-08-30T04:40:56.480Z,84.00
2022-08-30T04:41:56.488Z,88.00
2022-08-30T04:42:56.463Z,92.00
2022-08-30T04:43:56.478Z,96.00
2022-08-30T04:44:56.455Z,104.00
2022-08-30T04:45:56.511Z,112.00
2022-08-30T04:46:56.430Z,116.00
2022-08-30T04:47:56.502Z,132.00
2022-08-30T04:48:56.446Z,140.00
2022-08-30T04:49:56.408Z,152.00
2022-08-30T04:50:56.453Z,164.00
2022-08-30T04:51:56.441Z,172.00
2022-08-30T04:52:56.389Z,176.00
2022-08-30T04:53:57.388Z,184.00
2022-08-30T04:54:56.471Z,196.00
2022-08-30T04:55:56.373Z,204.00
2022-08-30T04:56:56.370Z,212.00
2022-08-30T04:57:56.367Z,220.00
2022-08-30T04:58:56.347Z,232.00
2022-08-30T04:59:56.334Z,252.00
2022-08-30T05:00:56.361Z,268.00
2022-08-30T05:01:56.381Z,268.00
2022-08-30T05:02:56.317Z,292.00
2022-08-30T05:03:56.314Z,312.00
2022-08-30T05:04:56.303Z,328.00
2022-08-30T05:05:56.301Z,332.00
2022-08-30T05:06:56.277Z,320.00
2022-08-30T05:07:56.268Z,324.00
2022-08-30T05:08:56.262Z,328.00
2022-08-30T05:09:56.257Z,328.00
2022-08-30T05:10:56.254Z,332.00
2022-08-30T05:11:56.237Z,352.00
2022-08-30T05:12:56.229Z,372.00
2022-08-30T05:13:56.246Z,384.00
2022-08-30T05:14:56.216Z,396.00
2022-08-30T05:15:56.240Z,404.00
2022-08-30T05:16:56.206Z,412.00
2022-08-30T05:17:56.198Z,420.00
2022-08-30T05:18:56.191Z,412.00
2022-08-30T05:19:56.196Z,388.00
2022-08-30T05:20:56.171Z,352.00
2022-08-30T05:21:56.163Z,324.00
2022-08-30T05:22:56.152Z,328.00
2022-08-30T05:23:56.153Z,336.00
2022-08-30T05:24:56.154Z,356.00
2022-08-30T05:25:56.134Z,396.00
2022-08-30T05:26:56.127Z,440.00
2022-08-30T05:27:56.116Z,508.00
2022-08-30T05:28:56.108Z,548.00
2022-08-30T05:29:56.103Z,584.00
2022-08-30T05:30:56.099Z,588.00
2022-08-30T05:31:56.107Z,644.00
2022-08-30T05:32:56.079Z,756.00
2022-08-30T05:33:56.081Z,784.00
2022-08-30T05:34:56.062Z,828.00
2022-08-30T05:35:56.075Z,768.00
2022-08-30T05:36:56.066Z,792.00
2022-08-30T05:37:56.041Z,800.00
2022-08-30T05:38:56.032Z,808.00
2022-08-30T05:39:56.029Z,680.00
2022-08-30T05:40:57.026Z,588.00
2022-08-30T05:41:56.009Z,544.00
2022-08-30T05:42:56.008Z,580.00
2022-08-30T05:43:55.995Z,576.00
2022-08-30T05:44:55.991Z,584.00
2022-08-30T05:45:56.013Z,620.00
2022-08-30T05:46:55.972Z,776.00
2022-08-30T05:47:55.960Z,992.00
2022-08-30T05:48:56.807Z,700.00
2022-08-30T05:49:55.969Z,784.00
2022-08-30T05:50:55.940Z,760.00
2022-08-30T05:51:55.937Z,716.00
2022-08-30T05:52:55.943Z,744.00
2022-08-30T05:53:55.930Z,788.00
2022-08-30T05:54:55.915Z,1332.00
2022-08-30T05:55:55.912Z,672.00
2022-08-30T05:56:55.891Z,644.00
2022-08-30T05:57:55.885Z,668.00
2022-08-30T05:58:55.903Z,604.00
2022-08-30T05:59:55.861Z,572.00
2022-08-30T06:00:55.862Z,668.00
2022-08-30T06:01:56.432Z,608.00
2022-08-30T06:02:55.898Z,524.00
2022-08-30T06:03:57.630Z,508.00
2022-08-30T06:04:55.832Z,508.00
2022-08-30T06:05:55.818Z,516.00
2022-08-30T06:06:55.816Z,520.00
2022-08-30T06:07:55.811Z,532.00
2022-08-30T06:08:55.799Z,548.00
2022-08-30T06:09:55.787Z,564.00
2022-08-30T06:10:55.779Z,592.00
2022-08-30T06:11:55.772Z,620.00
2022-08-30T06:12:55.762Z,652.00
2022-08-30T06:13:55.773Z,680.00
2022-08-30T06:14:55.774Z,724.00
2022-08-30T06:15:55.796Z,756.00
2022-08-30T06:16:55.744Z,828.00
2022-08-30T06:17:55.727Z,1532.00
2022-08-30T06:18:55.726Z,2276.00
2022-08-30T06:19:55.709Z,3352.00
2022-08-30T06:20:55.717Z,3316.00
2022-08-30T06:21:55.695Z,3364.00
2022-08-30T06:22:55.686Z,3460.00
2022-08-30T06:23:55.683Z,3380.00
2022-08-30T06:24:58.050Z,3176.00
2022-08-30T06:25:56.670Z,2996.00
2022-08-30T06:26:55.656Z,2852.00
2022-08-30T06:27:56.601Z,2672.00
2022-08-30T06:28:55.647Z,2660.00
2022-08-30T06:29:55.636Z,2600.00
2022-08-30T06:30:55.667Z,2504.00
2022-08-30T06:31:55.619Z,2444.00
2022-08-30T06:32:55.619Z,2392.00
2022-08-30T06:33:55.602Z,2340.00
2022-08-30T06:34:55.585Z,2280.00
2022-08-30T06:35:59.143Z,2164.00
2022-08-30T06:36:56.575Z,2096.00
2022-08-30T06:37:55.570Z,2004.00
2022-08-30T06:38:55.583Z,1868.00
2022-08-30T06:39:55.559Z,1136.00
2022-08-30T06:40:55.536Z,1692.00
2022-08-30T06:41:55.532Z,1708.00
2022-08-30T06:42:55.534Z,1792.00
2022-08-30T06:43:55.520Z,1004.00
2022-08-30T06:44:55.516Z,848.00
2022-08-30T06:45:55.502Z,836.00
2022-08-30T06:46:55.550Z,996.00
2022-08-30T06:47:55.554Z,828.00
2022-08-30T06:48:56.054Z,840.00
2022-08-30T06:49:55.485Z,844.00
2022-08-30T06:50:55.465Z,860.00
2022-08-30T06:51:55.455Z,876.00
2022-08-30T06:52:55.453Z,888.00
2022-08-30T06:53:55.445Z,900.00
2022-08-30T06:54:55.435Z,916.00
2022-08-30T06:55:55.421Z,936.00
2022-08-30T06:56:58.724Z,976.00
2022-08-30T06:57:56.402Z,1008.00
2022-08-30T06:58:56.406Z,1012.00
2022-08-30T06:59:57.172Z,1012.00
2022-08-30T07:00:56.394Z,992.00
2022-08-30T07:01:55.511Z,1008.00
2022-08-30T07:02:55.478Z,1148.00
2022-08-30T07:03:55.363Z,1116.00
2022-08-30T07:04:55.358Z,1092.00
2022-08-30T07:05:55.341Z,1088.00
2022-08-30T07:06:55.437Z,1088.00
2022-08-30T07:07:55.329Z,1160.00
2022-08-30T07:08:56.046Z,1172.00
2022-08-30T07:09:55.319Z,1736.00
2022-08-30T07:10:55.301Z,1160.00
2022-08-30T07:11:55.310Z,1244.00
2022-08-30T07:12:55.283Z,1112.00
2022-08-30T07:13:55.277Z,1616.00
2022-08-30T07:14:55.268Z,1664.00
2022-08-30T07:15:55.366Z,1684.00
2022-08-30T07:16:55.264Z,1648.00
2022-08-30T07:17:55.253Z,2220.00
2022-08-30T07:18:55.250Z,2076.00
2022-08-30T07:19:55.240Z,4596.00
2022-08-30T07:20:55.225Z,1564.00
2022-08-30T07:21:55.221Z,1160.00
2022-08-30T07:22:55.218Z,1080.00
2022-08-30T07:23:55.198Z,1136.00
2022-08-30T07:24:55.187Z,1212.00
2022-08-30T07:25:55.187Z,1304.00
2022-08-30T07:26:55.179Z,1092.00
2022-08-30T07:27:55.207Z,1052.00
2022-08-30T07:28:56.427Z,1028.00
2022-08-30T07:29:55.161Z,1224.00
2022-08-30T07:30:55.261Z,1152.00
2022-08-30T07:31:55.143Z,1252.00
2022-08-30T07:32:55.131Z,1196.00
2022-08-30T07:33:55.198Z,1196.00
2022-08-30T07:34:55.117Z,1672.00
2022-08-30T07:35:55.123Z,1688.00
2022-08-30T07:36:55.106Z,1728.00
2022-08-30T07:37:55.096Z,1832.00
2022-08-30T07:38:55.086Z,1376.00
2022-08-30T07:39:55.117Z,1316.00
2022-08-30T07:40:55.067Z,1220.00
2022-08-30T07:41:55.070Z,1172.00
2022-08-30T07:42:55.053Z,1136.00
2022-08-30T07:43:55.057Z,1084.00
2022-08-30T07:44:56.908Z,1040.00
2022-08-30T07:45:56.108Z,1044.00
2022-08-30T07:46:55.082Z,1088.00
2022-08-30T07:47:55.020Z,1092.00
2022-08-30T07:48:55.938Z,1104.00
2022-08-30T07:49:55.038Z,1192.00
2022-08-30T07:50:58.981Z,1260.00
2022-08-30T07:51:56.987Z,1056.00
2022-08-30T07:52:54.973Z,992.00
2022-08-30T07:53:55.005Z,932.00
2022-08-30T07:54:54.974Z,860.00
2022-08-30T07:55:54.956Z,828.00
2022-08-30T07:56:54.948Z,832.00
2022-08-30T07:57:54.979Z,844.00
2022-08-30T07:58:55.946Z,860.00
2022-08-30T07:59:54.913Z,896.00
2022-08-30T08:00:54.991Z,1128.00
2022-08-30T08:01:54.952Z,1424.00
2022-08-30T08:02:54.933Z,1404.00
2022-08-30T08:03:54.895Z,1388.00
2022-08-30T08:04:54.877Z,1356.00
2022-08-30T08:05:54.884Z,1380.00
2022-08-30T08:06:54.866Z,1356.00
2022-08-30T08:07:55.428Z,1356.00
2022-08-30T08:08:54.851Z,1368.00
2022-08-30T08:09:54.830Z,1324.00
2022-08-30T08:10:55.838Z,1300.00
2022-08-30T08:11:54.830Z,1300.00
2022-08-30T08:12:54.837Z,1284.00
2022-08-30T08:13:54.802Z,1276.00
2022-08-30T08:14:54.817Z,1280.00
2022-08-30T08:15:54.848Z,1264.00
2022-08-30T08:16:54.791Z,1272.00
2022-08-30T08:17:54.782Z,1300.00
2022-08-30T08:18:54.795Z,1312.00
2022-08-30T08:19:54.758Z,1300.00
2022-08-30T08:20:54.761Z,1292.00
2022-08-30T08:22:04.103Z,1264.00
2022-08-30T08:22:56.739Z,1292.00
2022-08-30T08:23:54.734Z,1284.00
2022-08-30T08:24:54.733Z,1292.00
2022-08-30T08:25:54.723Z,1300.00
2022-08-30T08:26:54.710Z,1300.00
2022-08-30T08:27:54.702Z,1292.00
2022-08-30T08:28:56.816Z,1328.00
2022-08-30T08:29:54.678Z,1336.00
2022-08-30T08:30:54.739Z,1356.00
2022-08-30T08:31:54.679Z,1376.00
2022-08-30T08:32:54.669Z,1416.00
2022-08-30T08:33:54.729Z,1436.00
2022-08-30T08:34:54.646Z,1464.00
2022-08-30T08:35:55.355Z,1460.00
2022-08-30T08:36:54.635Z,1440.00
2022-08-30T08:37:54.617Z,1536.00
2022-08-30T08:38:54.620Z,1576.00
2022-08-30T08:39:54.620Z,1600.00
2022-08-30T08:40:54.616Z,1624.00
2022-08-30T08:41:54.592Z,1600.00
2022-08-30T08:42:54.581Z,1600.00
2022-08-30T08:43:54.573Z,1624.00
2022-08-30T08:44:55.460Z,1524.00
2022-08-30T08:45:54.604Z,1572.00
2022-08-30T08:46:54.595Z,1520.00
2022-08-30T08:47:54.564Z,1472.00
2022-08-30T08:49:01.420Z,1556.00
2022-08-30T08:49:56.538Z,1576.00
2022-08-30T08:50:54.522Z,1592.00
2022-08-30T08:51:54.508Z,1624.00
2022-08-30T08:52:54.507Z,1684.00
2022-08-30T08:53:54.504Z,1708.00
2022-08-30T08:54:54.492Z,1676.00
2022-08-30T08:55:54.484Z,1612.00
2022-08-30T08:56:54.482Z,1552.00
2022-08-30T08:57:54.460Z,1536.00
2022-08-30T08:58:54.465Z,1476.00
2022-08-30T08:59:54.570Z,1480.00
2022-08-30T09:00:54.441Z,1292.00
2022-08-30T09:01:54.534Z,1248.00
2022-08-30T09:02:55.981Z,1252.00
2022-08-30T09:03:55.421Z,1240.00
2022-08-30T09:04:54.524Z,1288.00
2022-08-30T09:05:54.403Z,1332.00
2022-08-30T09:06:54.398Z,1388.00
2022-08-30T09:07:54.400Z,1412.00
2022-08-30T09:08:54.426Z,1444.00
2022-08-30T09:09:54.385Z,1472.00
2022-08-30T09:10:54.388Z,1476.00
2022-08-30T09:11:54.382Z,1480.00
2022-08-30T09:12:59.323Z,1468.00
2022-08-30T09:13:56.340Z,1492.00
2022-08-30T09:14:54.504Z,1468.00
2022-08-30T09:15:55.097Z,1400.00
2022-08-30T09:16:55.329Z,1384.00
2022-08-30T09:17:54.319Z,1424.00
2022-08-30T09:18:55.009Z,1388.00
2022-08-30T09:19:54.314Z,1336.00
2022-08-30T09:20:54.296Z,1316.00
2022-08-30T09:21:54.284Z,1456.00
2022-08-30T09:22:54.952Z,1460.00
2022-08-30T09:23:54.278Z,1472.00
2022-08-30T09:24:54.270Z,1416.00
2022-08-30T09:25:54.259Z,1256.00
2022-08-30T09:26:54.251Z,1272.00
2022-08-30T09:27:54.248Z,1196.00
2022-08-30T09:28:54.233Z,1116.00
2022-08-30T09:29:54.223Z,1076.00
2022-08-30T09:30:54.272Z,1032.00
2022-08-30T09:32:10.080Z,1212.00
2022-08-30T09:32:56.200Z,1048.00
2022-08-30T09:33:54.198Z,1024.00
2022-08-30T09:34:54.185Z,1052.00
2022-08-30T09:35:54.324Z,1128.00
2022-08-30T09:36:54.200Z,1164.00
2022-08-30T09:37:54.160Z,1180.00
2022-08-30T09:38:54.156Z,1188.00
2022-08-30T09:39:54.147Z,1144.00
2022-08-30T09:40:54.143Z,1056.00
2022-08-30T09:41:54.130Z,1260.00
2022-08-30T09:42:54.125Z,1172.00
2022-08-30T09:43:54.134Z,1128.00
2022-08-30T09:44:54.108Z,964.00
2022-08-30T09:45:54.138Z,1188.00
2022-08-30T09:46:54.107Z,1152.00
2022-08-30T09:47:54.088Z,1136.00
2022-08-30T09:48:54.082Z,1100.00
2022-08-30T09:49:54.080Z,1092.00
2022-08-30T09:50:54.984Z,1104.00
2022-08-30T09:51:54.061Z,1008.00
2022-08-30T09:52:55.601Z,1024.00
2022-08-30T09:54:17.307Z,1032.00
2022-08-30T09:54:56.063Z,996.00
2022-08-30T09:55:54.075Z,1012.00
2022-08-30T09:56:54.040Z,1008.00
2022-08-30T09:57:54.551Z,1008.00
2022-08-30T09:58:54.007Z,988.00
2022-08-30T09:59:54.043Z,1008.00
2022-08-30T10:00:54.027Z,864.00
2022-08-30T10:01:53.999Z,796.00
2022-08-30T10:02:53.970Z,980.00
2022-08-30T10:03:54.971Z,896.00
2022-08-30T10:04:53.970Z,972.00
2022-08-30T10:05:53.955Z,908.00
2022-08-30T10:06:53.959Z,868.00
2022-08-30T10:07:53.946Z,948.00
2022-08-30T10:08:53.936Z,932.00
2022-08-30T10:09:53.922Z,932.00
2022-08-30T10:10:54.582Z,936.00
2022-08-30T10:11:53.930Z,948.00
2022-08-30T10:12:53.898Z,940.00
2022-08-30T10:13:53.891Z,972.00
2022-08-30T10:14:53.885Z,920.00
2022-08-30T10:15:53.872Z,896.00
2022-08-30T10:16:53.864Z,892.00
2022-08-30T10:17:53.861Z,884.00
2022-08-30T10:18:53.853Z,872.00
2022-08-30T10:19:53.847Z,876.00
2022-08-30T10:20:53.880Z,888.00
2022-08-30T10:21:53.827Z,884.00
2022-08-30T10:22:53.829Z,872.00
2022-08-30T10:23:53.809Z,876.00
2022-08-30T10:24:53.838Z,884.00
2022-08-30T10:25:53.794Z,872.00
2022-08-30T10:26:53.807Z,848.00
2022-08-30T10:27:53.827Z,852.00
2022-08-30T10:28:53.767Z,868.00
2022-08-30T10:29:53.771Z,872.00
2022-08-30T10:30:53.755Z,868.00
2022-08-30T10:31:53.747Z,856.00
2022-08-30T10:32:53.751Z,860.00
2022-08-30T10:33:53.725Z,856.00
2022-08-30T10:34:53.716Z,860.00
2022-08-30T10:35:53.727Z,860.00
2022-08-30T10:36:53.700Z,860.00
2022-08-30T10:37:53.688Z,860.00
2022-08-30T10:38:53.705Z,860.00
2022-08-30T10:39:56.345Z,856.00
2022-08-30T10:40:53.910Z,856.00
2022-08-30T10:41:53.663Z,848.00
2022-08-30T10:42:53.659Z,832.00
2022-08-30T10:43:53.644Z,848.00
2022-08-30T10:44:53.644Z,840.00
2022-08-30T10:45:53.638Z,832.00
2022-08-30T10:46:53.618Z,832.00
2022-08-30T10:47:53.610Z,800.00
2022-08-30T10:48:53.604Z,796.00
2022-08-30T10:49:53.595Z,772.00
2022-08-30T10:50:53.654Z,756.00
2022-08-30T10:51:53.578Z,796.00
2022-08-30T10:52:53.571Z,792.00
2022-08-30T10:53:53.589Z,768.00
2022-08-30T10:54:53.554Z,748.00
2022-08-30T10:55:53.635Z,744.00
2022-08-30T10:56:53.553Z,784.00
2022-08-30T10:57:53.530Z,804.00
2022-08-30T10:58:53.524Z,808.00
2022-08-30T10:59:53.516Z,804.00
2022-08-30T11:00:53.539Z,804.00
2022-08-30T11:01:53.507Z,808.00
2022-08-30T11:02:53.499Z,808.00
2022-08-30T11:03:53.489Z,808.00
2022-08-30T11:04:54.875Z,808.00
2022-08-30T11:05:53.466Z,808.00
2022-08-30T11:06:54.867Z,812.00
2022-08-30T11:07:53.453Z,808.00
2022-08-30T11:08:53.454Z,700.00
2022-08-30T11:09:53.464Z,768.00
2022-08-30T11:10:53.428Z,744.00
2022-08-30T11:11:53.434Z,828.00
2022-08-30T11:12:53.416Z,824.00
2022-08-30T11:13:56.998Z,816.00
2022-08-30T11:14:54.402Z,820.00
2022-08-30T11:15:53.388Z,820.00
2022-08-30T11:16:53.394Z,816.00
2022-08-30T11:17:53.375Z,808.00
2022-08-30T11:18:53.411Z,800.00
2022-08-30T11:19:53.369Z,808.00
2022-08-30T11:20:53.366Z,796.00
2022-08-30T11:21:53.397Z,812.00
2022-08-30T11:22:53.387Z,816.00
2022-08-30T11:23:53.368Z,816.00
2022-08-30T11:24:53.337Z,816.00
2022-08-30T11:25:58.109Z,812.00
2022-08-30T11:26:54.326Z,808.00
2022-08-30T11:27:53.531Z,800.00
2022-08-30T11:28:54.036Z,788.00
2022-08-30T11:29:53.301Z,784.00
2022-08-30T11:30:53.326Z,792.00
2022-08-30T11:31:53.271Z,796.00
2022-08-30T11:32:53.271Z,804.00
2022-08-30T11:33:53.279Z,808.00
2022-08-30T11:34:53.256Z,804.00
2022-08-30T11:35:53.250Z,800.00
2022-08-30T11:36:53.226Z,804.00
2022-08-30T11:37:53.222Z,812.00
2022-08-30T11:38:53.214Z,812.00
2022-08-30T11:39:53.219Z,816.00
2022-08-30T11:40:53.215Z,820.00
2022-08-30T11:41:53.196Z,828.00
2022-08-30T11:42:53.519Z,832.00
2022-08-30T11:43:53.344Z,824.00
2022-08-30T11:44:53.171Z,832.00
2022-08-30T11:45:53.269Z,844.00
2022-08-30T11:46:53.192Z,852.00
2022-08-30T11:47:53.142Z,860.00
2022-08-30T11:48:54.374Z,828.00
2022-08-30T11:49:53.138Z,844.00
2022-08-30T11:50:53.154Z,840.00
2022-08-30T11:52:08.537Z,844.00
2022-08-30T11:52:55.117Z,848.00
2022-08-30T11:53:53.112Z,848.00
2022-08-30T11:54:53.522Z,856.00
2022-08-30T11:55:54.100Z,864.00
2022-08-30T11:56:53.639Z,864.00
2022-08-30T11:57:53.877Z,872.00
2022-08-30T11:58:53.076Z,880.00
2022-08-30T11:59:53.081Z,880.00
2022-08-30T12:00:53.152Z,868.00
2022-08-30T12:01:53.064Z,868.00
2022-08-30T12:02:53.083Z,880.00
2022-08-30T12:03:53.036Z,892.00
2022-08-30T12:04:53.026Z,912.00
2022-08-30T12:05:53.051Z,932.00
2022-08-30T12:06:53.042Z,948.00
2022-08-30T12:08:27.885Z,952.00
2022-08-30T12:08:58.034Z,960.00
2022-08-30T12:09:55.013Z,968.00
2022-08-30T12:10:53.000Z,988.00
2022-08-30T12:11:53.054Z,1004.00
2022-08-30T12:12:52.966Z,1028.00
2022-08-30T12:13:52.981Z,1064.00
2022-08-30T12:14:52.953Z,1116.00
2022-08-30T12:15:52.951Z,1176.00
2022-08-30T12:16:53.980Z,1292.00
2022-08-30T12:17:52.933Z,1368.00
2022-08-30T12:18:52.933Z,1428.00
2022-08-30T12:19:52.911Z,1484.00
2022-08-30T12:20:52.923Z,1468.00
2022-08-30T12:21:52.915Z,1460.00
2022-08-30T12:22:52.899Z,1452.00
2022-08-30T12:23:52.884Z,1440.00
2022-08-30T12:24:52.870Z,1464.00
2022-08-30T12:25:52.859Z,1440.00
2022-08-30T12:26:52.879Z,1452.00
2022-08-30T12:27:52.855Z,1420.00
2022-08-30T12:28:52.837Z,1444.00
2022-08-30T12:29:52.831Z,1444.00
2022-08-30T12:30:53.145Z,1400.00
2022-08-30T12:31:52.868Z,1396.00
2022-08-30T12:32:52.812Z,1356.00
2022-08-30T12:33:52.803Z,1380.00
2022-08-30T12:34:52.795Z,1320.00
2022-08-30T12:35:52.786Z,1328.00
2022-08-30T12:36:52.792Z,1164.00
2022-08-30T12:37:53.765Z,1136.00
2022-08-30T12:38:52.759Z,1284.00